Terminal Aerodrome Forecast
Issued by NWS

Home | Current Version | Previous Version | Text Only | Print | Product List | Glossary On
Versions: 1 2 3 4 5 6 7 8 9 10 11 12 13 14 15 16 17 18 19 20 21 22 23 24 25
000
FTUS46 KSEW 261700 AAB
TAFOLM
TAF AMD
KOLM 261754Z 2618/2718 20005KT P6SM SCT015 OVC150
     FM262100 20006KT P6SM SCT015 OVC150
     FM270400 20008KT P6SM -RA BKN035
     FM271200 20010KT 4SM -SHRA BR BKN009 OVC015=

USA.gov is the U.S. government's official web portal to all federal, state and local government web resources and services.